createdAt,value
2022-09-10T00:04:08.413Z,99876.69
2022-09-10T00:09:12.561Z,99873.63
2022-09-10T00:14:19.396Z,99871.13
2022-09-10T00:19:22.874Z,99872.63
2022-09-10T00:24:26.023Z,99883.69
2022-09-10T00:29:30.170Z,99882.59
2022-09-10T00:34:32.929Z,99881.97
2022-09-10T00:39:35.857Z,99876.22
2022-09-10T00:45:00.141Z,99893.16
2022-09-10T00:50:08.278Z,99888.06
2022-09-10T00:55:13.062Z,99900.44
2022-09-10T01:00:18.399Z,99899.41
2022-09-10T01:05:22.333Z,99903.13
2022-09-10T01:10:29.098Z,99900.31
2022-09-10T01:15:40.929Z,99907.19
2022-09-10T01:21:05.146Z,99904.50
2022-09-10T01:26:25.840Z,99898.88
2022-09-10T01:31:37.347Z,99909.66
2022-09-10T01:36:48.086Z,99908.22
2022-09-10T01:41:54.412Z,99912.41
2022-09-10T01:47:12.500Z,99902.25
2022-09-10T01:52:28.576Z,99906.09
2022-09-10T01:57:41.320Z,99907.28
2022-09-10T02:02:51.001Z,99904.22
2022-09-10T02:07:59.597Z,99902.44
2022-09-10T02:13:02.889Z,99899.31
2022-09-10T02:18:20.657Z,99898.69
2022-09-10T02:23:31.618Z,99889.03
2022-09-10T02:28:34.608Z,99894.09
2022-09-10T02:33:39.447Z,99899.31
2022-09-10T02:38:42.344Z,99899.69
2022-09-10T02:43:46.221Z,99896.78
2022-09-10T02:48:50.429Z,99908.97
2022-09-10T02:53:53.580Z,99896.78
2022-09-10T02:58:56.626Z,99902.56
2022-09-10T03:04:04.004Z,99902.91
2022-09-10T03:09:08.240Z,99902.38
2022-09-10T03:14:12.165Z,99896.00
2022-09-10T03:19:17.438Z,99899.06
2022-09-10T03:24:20.362Z,99888.22
2022-09-10T03:29:24.364Z,99895.28
2022-09-10T03:34:29.429Z,99895.63
2022-09-10T03:39:32.411Z,99890.91
2022-09-10T03:44:35.358Z,99886.97
2022-09-10T03:49:39.977Z,99893.38
2022-09-10T03:54:45.550Z,99899.63
2022-09-10T03:59:49.840Z,99905.16
2022-09-10T04:04:54.200Z,99901.47
2022-09-10T04:09:57.306Z,99908.38
2022-09-10T04:15:01.562Z,99915.09
2022-09-10T04:20:06.791Z,99911.66
2022-09-10T04:25:10.733Z,99924.91
2022-09-10T04:30:15.389Z,99915.97
2022-09-10T04:35:20.368Z,99924.59
2022-09-10T04:40:23.859Z,99936.00
2022-09-10T04:45:26.829Z,99932.59
2022-09-10T04:50:31.855Z,99932.75
2022-09-10T04:55:51.409Z,99930.59
2022-09-10T05:00:56.978Z,99936.66
2022-09-10T05:06:01.895Z,99940.09
2022-09-10T05:11:05.299Z,99939.09
2022-09-10T05:16:09.120Z,99944.59
2022-09-10T05:21:13.495Z,99938.56
2022-09-10T05:26:17.861Z,99938.78
2022-09-10T05:31:20.924Z,99942.69
2022-09-10T05:36:25.548Z,99943.38
2022-09-10T05:41:28.815Z,99937.50
2022-09-10T05:46:33.466Z,99947.19
2022-09-10T05:51:45.769Z,99947.88
2022-09-10T05:56:48.686Z,99947.88
2022-09-10T06:01:52.374Z,99940.59
2022-09-10T06:06:58.495Z,99949.22
2022-09-10T06:12:01.872Z,99942.59
2022-09-10T06:17:06.241Z,99942.56
2022-09-10T06:22:11.373Z,99936.59
2022-09-10T06:27:17.146Z,99939.56
2022-09-10T06:32:21.383Z,99941.31
2022-09-10T06:37:26.993Z,99939.94
2022-09-10T06:42:32.120Z,99934.50
2022-09-10T06:53:30.122Z,99947.63
2022-09-10T06:58:35.086Z,99953.09
2022-09-10T07:03:38.875Z,99958.56
2022-09-10T07:08:43.410Z,99947.19
2022-09-10T07:13:51.889Z,99951.84
2022-09-10T07:18:59.577Z,99948.53
2022-09-10T07:24:21.507Z,99954.50
2022-09-10T07:29:44.714Z,99970.19
2022-09-10T07:34:52.278Z,99957.66
2022-09-10T07:39:58.571Z,99969.78
2022-09-10T07:45:01.904Z,99968.94
2022-09-10T07:50:05.324Z,99982.69
2022-09-10T07:55:10.711Z,99977.44
2022-09-10T08:00:16.919Z,99987.97
2022-09-10T08:05:26.990Z,99994.28
2022-09-10T08:10:31.316Z,99998.19
2022-09-10T08:15:36.205Z,100004.78
2022-09-10T08:20:40.208Z,100014.22
2022-09-10T08:25:52.493Z,100016.19
2022-09-10T08:31:01.109Z,100030.69
2022-09-10T08:36:06.809Z,100021.13
2022-09-10T08:41:26.170Z,100043.19
2022-09-10T08:46:33.428Z,100028.78
2022-09-10T08:51:43.611Z,100026.13
2022-09-10T08:56:50.859Z,100030.50
2022-09-10T09:01:59.315Z,100030.63
2022-09-10T09:07:11.374Z,100040.03
2022-09-10T09:12:26.975Z,100044.16
2022-09-10T09:17:44.164Z,100047.06
2022-09-10T09:22:55.154Z,100033.22
2022-09-10T09:28:18.469Z,100039.44
2022-09-10T09:33:25.022Z,100031.75
2022-09-10T09:38:34.029Z,100045.44
2022-09-10T09:43:52.352Z,100055.44
2022-09-10T09:49:00.158Z,100056.34
2022-09-10T09:54:42.485Z,100040.72
2022-09-10T09:59:34.816Z,100044.34
2022-09-10T10:04:42.017Z,100038.59
2022-09-10T10:09:49.785Z,100028.59
2022-09-10T10:14:54.114Z,100030.88
2022-09-10T10:20:10.601Z,100030.63
2022-09-10T10:25:38.375Z,100027.28
2022-09-10T10:30:43.032Z,100021.66
2022-09-10T10:35:51.580Z,100023.56
2022-09-10T10:41:08.223Z,100024.41
2022-09-10T10:46:18.844Z,100023.06
2022-09-10T10:51:33.361Z,100010.91
2022-09-10T10:56:41.751Z,100017.75
2022-09-10T11:01:51.902Z,100015.59
2022-09-10T11:07:00.141Z,99996.25
2022-09-10T11:12:06.939Z,99997.75
2022-09-10T11:17:16.809Z,99991.63
2022-09-10T11:22:23.907Z,99998.19
2022-09-10T11:27:31.024Z,99993.78
2022-09-10T11:32:39.897Z,99996.25
2022-09-10T11:37:54.904Z,99998.19
2022-09-10T11:43:02.236Z,99997.97
2022-09-10T11:48:17.500Z,99996.31
2022-09-10T11:53:23.393Z,99995.47
2022-09-10T11:58:36.778Z,99998.47
2022-09-10T12:04:12.454Z,99988.59
2022-09-10T12:09:21.649Z,99997.31
2022-09-10T12:14:24.683Z,99994.63
2022-09-10T12:19:32.124Z,99999.09
2022-09-10T12:24:37.237Z,100009.59
2022-09-10T12:29:41.455Z,100027.88
2022-09-10T12:34:48.403Z,100036.44
2022-09-10T12:40:32.060Z,100032.16
2022-09-10T12:46:02.545Z,100030.66
2022-09-10T12:51:20.172Z,100028.97
2022-09-10T12:56:58.215Z,100021.38
2022-09-10T13:02:01.691Z,100033.53
2022-09-10T13:07:19.803Z,100024.22
2022-09-10T13:12:25.987Z,100021.69
2022-09-10T13:18:01.890Z,100026.47
2022-09-10T13:23:21.653Z,100016.72
2022-09-10T13:29:05.046Z,100018.31
2022-09-10T13:34:41.303Z,100014.78
2022-09-10T13:40:03.753Z,100014.56
2022-09-10T13:45:21.742Z,100017.75
2022-09-10T13:50:28.152Z,100015.88
2022-09-10T13:55:34.147Z,100002.19
2022-09-10T14:00:42.489Z,100004.19
2022-09-10T14:05:49.464Z,100007.63
2022-09-10T14:10:58.101Z,100008.03
2022-09-10T14:16:03.559Z,100012.94
2022-09-10T14:21:07.612Z,100014.59
2022-09-10T14:26:23.229Z,100016.47
2022-09-10T14:31:33.419Z,100014.22
2022-09-10T14:36:36.607Z,100007.59
2022-09-10T14:41:41.250Z,100014.59
2022-09-10T14:46:50.286Z,100009.72
2022-09-10T14:51:53.659Z,100009.75
2022-09-10T14:56:59.581Z,100002.75
2022-09-10T15:02:07.866Z,100004.84
2022-09-10T15:07:11.657Z,100003.06
2022-09-10T15:12:20.350Z,100005.97
2022-09-10T15:17:23.526Z,99996.59
2022-09-10T15:22:28.579Z,99996.13
2022-09-10T15:27:34.148Z,100003.72
2022-09-10T15:32:37.270Z,100006.16
2022-09-10T15:37:40.622Z,100000.63
2022-09-10T15:42:45.055Z,100003.81
2022-09-10T15:47:48.025Z,100015.72
2022-09-10T15:52:50.929Z,100027.41
2022-09-10T15:57:55.157Z,100025.84
2022-09-10T16:02:58.005Z,100029.63
2022-09-10T16:08:01.009Z,100033.28
2022-09-10T16:13:05.220Z,100030.28
2022-09-10T16:18:08.174Z,100042.44
2022-09-10T16:23:11.103Z,100043.53
2022-09-10T16:28:15.337Z,100051.03
2022-09-10T16:33:18.175Z,100045.84
2022-09-10T16:38:22.015Z,100055.66
2022-09-10T16:43:26.283Z,100054.88
2022-09-10T16:48:29.113Z,100054.03
2022-09-10T16:53:31.961Z,100052.00
2022-09-10T16:58:37.494Z,100052.63
2022-09-10T17:03:41.704Z,100054.72
2022-09-10T17:08:45.100Z,100061.28
2022-09-10T17:13:51.053Z,100058.81
2022-09-10T17:18:58.564Z,100056.63
2022-09-10T17:24:03.023Z,100064.91
2022-09-10T17:29:09.417Z,100077.53
2022-09-10T17:34:13.535Z,100078.41
2022-09-10T17:39:16.687Z,100088.94
2022-09-10T17:44:21.060Z,100086.06
2022-09-10T17:49:24.408Z,100105.22
2022-09-10T17:54:27.323Z,100115.56
2022-09-10T17:59:32.223Z,100115.38
2022-09-10T18:04:35.116Z,100132.00
2022-09-10T18:09:38.064Z,100128.44
2022-09-10T18:14:42.866Z,100140.13
2022-09-10T18:19:45.700Z,100149.63
2022-09-10T18:24:48.522Z,100146.25
2022-09-10T18:29:52.809Z,100157.94
2022-09-10T18:34:57.379Z,100165.72
2022-09-10T18:40:00.423Z,100164.03
2022-09-10T18:45:05.549Z,100167.09
2022-09-10T18:50:10.160Z,100177.41
2022-09-10T18:55:13.123Z,100181.00
2022-09-10T19:00:17.725Z,100187.25
2022-09-10T19:05:20.567Z,100183.72
2022-09-10T19:10:23.313Z,100195.72
2022-09-10T19:15:27.886Z,100191.47
2022-09-10T19:20:30.891Z,100199.59
2022-09-10T19:25:33.730Z,100212.13
2022-09-10T19:30:40.069Z,100215.03
2022-09-10T19:35:44.215Z,100215.88
2022-09-10T19:40:47.138Z,100221.44
2022-09-10T19:45:55.632Z,100229.06
2022-09-10T19:51:00.181Z,100235.09
2022-09-10T19:56:07.149Z,100242.88
2022-09-10T20:01:13.166Z,100242.25
2022-09-10T20:06:18.456Z,100251.09
2022-09-10T20:11:24.178Z,100245.28
2022-09-10T20:16:29.904Z,100243.34
2022-09-10T20:21:33.290Z,100246.25
2022-09-10T20:26:39.076Z,100259.28
2022-09-10T20:31:44.078Z,100256.75
2022-09-10T20:36:47.781Z,100255.56
2022-09-10T20:41:50.582Z,100255.22
2022-09-10T20:46:55.007Z,100258.75
2022-09-10T20:51:59.544Z,100259.41
2022-09-10T20:57:02.455Z,100269.56
2022-09-10T21:02:08.381Z,100270.53
2022-09-10T21:07:11.401Z,100271.88
2022-09-10T21:12:14.293Z,100277.72
2022-09-10T21:17:18.640Z,100273.22
2022-09-10T21:22:21.501Z,100279.28
2022-09-10T21:27:24.918Z,100274.56
2022-09-10T21:32:29.124Z,100275.41
2022-09-10T21:37:32.033Z,100283.88
2022-09-10T21:42:35.188Z,100291.47
2022-09-10T21:47:39.363Z,100295.69
2022-09-10T21:52:42.245Z,100292.34
2022-09-10T21:57:45.159Z,100289.75
2022-09-10T22:02:51.077Z,100297.03
2022-09-10T22:07:54.554Z,100301.09
2022-09-10T22:12:57.456Z,100306.28
2022-09-10T22:18:01.653Z,100316.09
2022-09-10T22:23:05.345Z,100314.25
2022-09-10T22:28:08.141Z,100321.91
2022-09-10T22:33:12.290Z,100324.44
2022-09-10T22:38:19.482Z,100339.28
2022-09-10T22:43:22.420Z,100349.41
2022-09-10T22:48:27.616Z,100356.69
2022-09-10T22:53:30.408Z,100354.06
2022-09-10T22:58:33.889Z,100361.78
2022-09-10T23:03:38.304Z,100362.16
2022-09-10T23:08:41.946Z,100374.41
2022-09-10T23:13:46.290Z,100372.09
2022-09-10T23:18:52.158Z,100374.16
2022-09-10T23:23:57.617Z,100380.41
2022-09-10T23:29:03.764Z,100389.72
2022-09-10T23:34:11.034Z,100392.75
2022-09-10T23:39:16.119Z,100398.00
2022-09-10T23:44:20.179Z,100400.53
2022-09-10T23:49:24.958Z,100400.19
2022-09-10T23:54:29.203Z,100404.72
2022-09-10T23:59:32.010Z,100404.38
